Time;durP1;ratioP1;P1;durP2;ratioP2;P2;SDS_P1;SDS_P2;PMS_P1;PMS_P2;Temp;Humidity;BMP_temperature;BMP_pressure;BME280_temperature;BME280_humidity;BME280_pressure;Samples;Min_cycle;Max_cycle;Signal;HPM_P1;HPM_P2
2022/06/01 00:01:04;;;;;;;;;;;10.90;99.90;;;;;;5054721;28;19917;-77
2022/06/01 00:03:31;;;;;;;;;;;10.80;99.90;;;;;;5050307;28;19917;-77
2022/06/01 00:05:57;;;;;;;;;;;10.80;99.90;;;;;;5055576;28;20315;-77
2022/06/01 00:08:23;;;;;;;;;;;10.80;99.90;;;;;;5054532;28;19955;-77
2022/06/01 00:10:49;;;;;;;;;;;10.80;99.90;;;;;;5051848;28;19999;-77
2022/06/01 00:13:15;;;;;;;;;;;10.80;99.90;;;;;;5055832;28;19917;-77
2022/06/01 00:15:40;;;;;;;;;;;10.80;99.90;;;;;;5048386;28;19917;-77
2022/06/01 00:18:06;;;;;;;;;;;10.80;99.90;;;;;;5055566;28;20297;-77
2022/06/01 00:20:31;;;;;;;;;;;10.80;99.90;;;;;;5056754;28;19916;-77
2022/06/01 00:22:57;;;;;;;;;;;10.80;99.90;;;;;;5045215;28;19919;-77
2022/06/01 00:25:23;;;;;;;;;;;10.80;99.90;;;;;;5054367;28;19917;-77
2022/06/01 00:27:49;;;;;;;;;;;10.80;99.90;;;;;;5052978;28;19917;-76
2022/06/01 00:30:16;;;;;;;;;;;10.80;99.90;;;;;;5052358;28;19924;-76
2022/06/01 00:32:41;;;;;;;;;;;10.80;99.90;;;;;;5055235;28;19913;-76
2022/06/01 00:35:08;;;;;;;;;;;10.80;99.90;;;;;;5052732;28;20066;-76
2022/06/01 00:37:34;;;;;;;;;;;10.80;99.90;;;;;;5054038;28;19923;-77
2022/06/01 00:40:00;;;;;;;;;;;10.70;99.90;;;;;;5052734;28;19916;-76
2022/06/01 00:42:27;;;;;;;;;;;10.70;99.90;;;;;;5051005;28;19913;-77
2022/06/01 00:44:52;;;;;;;;;;;10.70;99.90;;;;;;5051552;28;21643;-77
2022/06/01 00:47:19;;;;;;;;;;;10.60;99.90;;;;;;5056443;28;19939;-77
2022/06/01 00:49:47;;;;;;;;;;;10.60;99.90;;;;;;5050062;28;20217;-76
2022/06/01 00:52:14;;;;;;;;;;;10.60;99.90;;;;;;5054205;28;19920;-76
2022/06/01 00:54:40;;;;;;;;;;;10.60;99.90;;;;;;5055463;28;19923;-76
2022/06/01 00:57:10;;;;;;;;;;;10.60;99.90;;;;;;5061330;28;20006;-76
2022/06/01 00:59:38;;;;;;;;;;;10.60;99.90;;;;;;5043461;28;19913;-77
2022/06/01 01:02:06;;;;;;;;;;;10.50;99.90;;;;;;5053218;28;19956;-77
2022/06/01 01:04:33;;;;;;;;;;;10.50;99.90;;;;;;5053848;28;20318;-77
2022/06/01 01:07:05;;;;;;;;;;;10.50;99.90;;;;;;5054866;28;19917;-76
2022/06/01 01:09:30;;;;;;;;;;;10.50;99.90;;;;;;5046421;28;19921;-76
2022/06/01 01:11:58;;;;;;;;;;;10.40;99.90;;;;;;5049407;28;20027;-76
2022/06/01 01:14:26;;;;;;;;;;;10.40;99.90;;;;;;5061207;28;20307;-77
2022/06/01 01:16:52;;;;;;;;;;;10.30;99.90;;;;;;5052035;28;20018;-77
2022/06/01 01:19:33;;;;;;;;;;;10.30;99.90;;;;;;5052595;28;20326;-77
2022/06/01 01:22:19;;;;;;;;;;;10.30;99.90;;;;;;5049983;28;19970;-76
2022/06/01 01:25:04;;;;;;;;;;;10.30;99.90;;;;;;5074801;28;19916;-77
2022/06/01 01:27:29;;;;;;;;;;;10.30;99.90;;;;;;5056075;28;19978;-76
2022/06/01 01:29:55;;;;;;;;;;;10.20;99.90;;;;;;5054449;28;20315;-77
2022/06/01 01:32:21;;;;;;;;;;;10.20;99.90;;;;;;5051660;28;19963;-78
2022/06/01 01:34:46;;;;;;;;;;;10.20;99.90;;;;;;5042240;28;19938;-77
2022/06/01 01:37:16;;;;;;;;;;;10.20;99.90;;;;;;5042767;28;19913;-78
2022/06/01 01:39:42;;;;;;;;;;;10.20;99.90;;;;;;5047373;28;19913;-78
2022/06/01 01:42:07;;;;;;;;;;;10.10;99.90;;;;;;5046722;28;19920;-77
2022/06/01 01:44:40;;;;;;;;;;;10.00;99.90;;;;;;5041786;28;19928;-77
2022/06/01 01:47:06;;;;;;;;;;;10.00;99.90;;;;;;5057070;28;19963;-78
2022/06/01 01:49:33;;;;;;;;;;;10.00;99.90;;;;;;5044251;28;19948;-79
2022/06/01 01:52:00;;;;;;;;;;;10.00;99.90;;;;;;5043417;28;19920;-78
2022/06/01 01:54:26;;;;;;;;;;;10.00;99.90;;;;;;5050374;28;19917;-78
2022/06/01 01:57:10;;;;;;;;;;;9.90;99.90;;;;;;5043302;28;19921;-78
2022/06/01 01:59:41;;;;;;;;;;;10.00;99.90;;;;;;5048692;28;19948;-78
2022/06/01 02:02:13;;;;;;;;;;;9.90;99.90;;;;;;5045232;28;19928;-78
2022/06/01 02:07:41;;;;;;;;;;;9.90;99.90;;;;;;5045380;28;19936;-78
2022/06/01 02:12:51;;;;;;;;;;;9.80;99.90;;;;;;5047341;28;20274;-79
2022/06/01 02:15:20;;;;;;;;;;;9.80;99.90;;;;;;5046224;28;19913;-79
2022/06/01 02:17:51;;;;;;;;;;;9.80;99.90;;;;;;5048928;28;19939;-78
2022/06/01 02:20:25;;;;;;;;;;;9.80;99.90;;;;;;5044168;28;19913;-78
2022/06/01 02:22:51;;;;;;;;;;;9.80;99.90;;;;;;5046975;28;20243;-77
2022/06/01 02:25:17;;;;;;;;;;;9.80;99.90;;;;;;5045265;28;20787;-78
2022/06/01 02:27:44;;;;;;;;;;;9.70;99.90;;;;;;5048271;28;19913;-78
2022/06/01 02:30:19;;;;;;;;;;;9.70;99.90;;;;;;5023447;28;19932;-77
2022/06/01 02:32:46;;;;;;;;;;;9.70;99.90;;;;;;5048606;28;19927;-78
2022/06/01 02:35:13;;;;;;;;;;;9.70;99.90;;;;;;5049062;28;19948;-77
2022/06/01 02:37:39;;;;;;;;;;;9.70;99.90;;;;;;5050188;28;19913;-77
2022/06/01 02:40:07;;;;;;;;;;;9.70;99.90;;;;;;5052959;28;19935;-77
2022/06/01 02:42:33;;;;;;;;;;;9.60;99.90;;;;;;5049124;28;19913;-77
2022/06/01 02:44:59;;;;;;;;;;;9.60;99.90;;;;;;5048033;28;19919;-78
2022/06/01 02:47:26;;;;;;;;;;;9.60;99.90;;;;;;5051755;28;19971;-77
2022/06/01 02:49:51;;;;;;;;;;;9.60;99.90;;;;;;5051594;28;20275;-78
2022/06/01 02:52:17;;;;;;;;;;;9.70;99.90;;;;;;5048232;28;20003;-77
2022/06/01 02:54:43;;;;;;;;;;;9.70;99.90;;;;;;5054051;28;19927;-76
2022/06/01 02:57:08;;;;;;;;;;;9.60;99.90;;;;;;5062977;28;19917;-77
2022/06/01 02:59:34;;;;;;;;;;;9.60;99.90;;;;;;5050736;28;19917;-77
2022/06/01 03:02:00;;;;;;;;;;;9.60;99.90;;;;;;5049280;28;19966;-77
2022/06/01 03:04:26;;;;;;;;;;;9.60;99.90;;;;;;5047352;28;19921;-76
2022/06/01 03:06:52;;;;;;;;;;;9.60;99.90;;;;;;5046640;28;20008;-78
2022/06/01 03:09:18;;;;;;;;;;;9.60;99.90;;;;;;5048159;28;20007;-78
2022/06/01 03:11:43;;;;;;;;;;;9.60;99.90;;;;;;5050672;28;19968;-78
2022/06/01 03:14:09;;;;;;;;;;;9.60;99.90;;;;;;5052488;28;19967;-79
2022/06/01 03:16:35;;;;;;;;;;;9.60;99.90;;;;;;5053919;28;19913;-78
2022/06/01 03:19:00;;;;;;;;;;;9.60;99.90;;;;;;5046787;28;20012;-78
2022/06/01 03:21:26;;;;;;;;;;;9.60;99.90;;;;;;5047061;28;19932;-77
2022/06/01 03:23:51;;;;;;;;;;;9.60;99.90;;;;;;5030552;28;19981;-77
2022/06/01 03:26:17;;;;;;;;;;;9.60;99.90;;;;;;5050958;28;20000;-78
2022/06/01 03:28:42;;;;;;;;;;;9.60;99.90;;;;;;5049510;28;19917;-78
2022/06/01 03:31:08;;;;;;;;;;;9.50;99.90;;;;;;5050378;28;20303;-77
2022/06/01 03:33:35;;;;;;;;;;;9.50;99.90;;;;;;5051475;28;19923;-77
2022/06/01 03:36:04;;;;;;;;;;;9.40;99.90;;;;;;5057613;28;20322;-77
2022/06/01 03:38:30;;;;;;;;;;;9.40;99.90;;;;;;5044248;28;19913;-77
2022/06/01 03:40:56;;;;;;;;;;;9.40;99.90;;;;;;5051090;28;19917;-79
2022/06/01 03:43:22;;;;;;;;;;;9.40;99.90;;;;;;5049742;28;20417;-78
2022/06/01 03:45:56;;;;;;;;;;;9.30;99.90;;;;;;5052430;28;19920;-78
2022/06/01 03:48:28;;;;;;;;;;;9.40;99.90;;;;;;5050967;28;20331;-78
2022/06/01 03:50:54;;;;;;;;;;;9.40;99.90;;;;;;5051525;28;19924;-77
2022/06/01 03:53:20;;;;;;;;;;;9.40;99.90;;;;;;5051511;28;19913;-77
2022/06/01 03:55:46;;;;;;;;;;;9.30;99.90;;;;;;5052917;28;20050;-78
2022/06/01 03:58:12;;;;;;;;;;;9.30;99.90;;;;;;5053815;28;19999;-77
2022/06/01 04:00:38;;;;;;;;;;;9.30;99.90;;;;;;5050311;28;19924;-78
2022/06/01 04:03:03;;;;;;;;;;;9.30;99.90;;;;;;5052927;28;19917;-78
2022/06/01 04:05:29;;;;;;;;;;;9.30;99.90;;;;;;5052349;28;20054;-78
2022/06/01 04:07:55;;;;;;;;;;;9.20;99.90;;;;;;5050621;28;20322;-77
2022/06/01 04:10:21;;;;;;;;;;;9.30;99.90;;;;;;5060384;28;20023;-78
2022/06/01 04:12:46;;;;;;;;;;;9.30;99.90;;;;;;5056774;28;20323;-79
2022/06/01 04:15:12;;;;;;;;;;;9.30;99.90;;;;;;5054106;28;19913;-78
2022/06/01 04:17:38;;;;;;;;;;;9.30;99.90;;;;;;5053398;28;19913;-78
2022/06/01 04:20:04;;;;;;;;;;;9.30;99.90;;;;;;5057057;28;19917;-78
2022/06/01 04:22:29;;;;;;;;;;;9.30;99.90;;;;;;5054602;28;19921;-78
2022/06/01 04:24:55;;;;;;;;;;;9.40;99.90;;;;;;5052581;28;19920;-78
2022/06/01 04:27:21;;;;;;;;;;;9.40;99.90;;;;;;5051221;28;19920;-79
2022/06/01 04:29:47;;;;;;;;;;;9.50;99.90;;;;;;5050947;28;19939;-78
2022/06/01 04:32:14;;;;;;;;;;;9.50;99.90;;;;;;5054365;28;19967;-78
2022/06/01 04:34:39;;;;;;;;;;;9.60;99.90;;;;;;5067549;28;19923;-79
2022/06/01 04:37:05;;;;;;;;;;;9.80;99.90;;;;;;5059346;28;19913;-79
2022/06/01 04:39:31;;;;;;;;;;;9.90;99.90;;;;;;5055798;28;19928;-79
2022/06/01 04:41:56;;;;;;;;;;;10.10;99.90;;;;;;5056170;28;19916;-79
2022/06/01 04:44:22;;;;;;;;;;;10.20;99.90;;;;;;5054852;28;19913;-79
2022/06/01 04:46:48;;;;;;;;;;;10.30;99.90;;;;;;5056398;28;19959;-79
2022/06/01 04:49:14;;;;;;;;;;;10.30;99.90;;;;;;5056395;28;19921;-79
2022/06/01 04:51:39;;;;;;;;;;;10.30;99.90;;;;;;5056097;28;20000;-79
2022/06/01 04:54:07;;;;;;;;;;;10.40;99.90;;;;;;5054032;28;19952;-78
2022/06/01 04:56:32;;;;;;;;;;;10.30;99.90;;;;;;5055706;28;20328;-79
2022/06/01 04:58:58;;;;;;;;;;;10.40;99.90;;;;;;5055574;28;19971;-79
2022/06/01 05:01:23;;;;;;;;;;;10.40;99.90;;;;;;5052646;28;20308;-79
2022/06/01 05:03:49;;;;;;;;;;;10.30;99.90;;;;;;5054779;28;20316;-81
2022/06/01 05:06:15;;;;;;;;;;;10.30;99.90;;;;;;5056393;28;19920;-80
2022/06/01 05:08:41;;;;;;;;;;;10.30;99.90;;;;;;5053447;28;19916;-79
2022/06/01 05:11:06;;;;;;;;;;;10.40;99.90;;;;;;5055320;28;19990;-79
2022/06/01 05:13:32;;;;;;;;;;;10.40;99.90;;;;;;5054878;28;19944;-79
2022/06/01 05:15:58;;;;;;;;;;;10.50;99.90;;;;;;5054720;28;19917;-79
2022/06/01 05:18:25;;;;;;;;;;;10.50;99.90;;;;;;5054758;28;19959;-80
2022/06/01 05:20:53;;;;;;;;;;;10.60;99.90;;;;;;5055256;28;19971;-80
2022/06/01 05:23:18;;;;;;;;;;;10.80;99.90;;;;;;5052284;28;19928;-80
2022/06/01 05:25:45;;;;;;;;;;;10.90;99.90;;;;;;5050680;28;19920;-78
2022/06/01 05:28:11;;;;;;;;;;;11.20;99.90;;;;;;5043596;28;19923;-79
2022/06/01 05:30:37;;;;;;;;;;;11.60;99.90;;;;;;5042402;28;19925;-78
2022/06/01 05:33:03;;;;;;;;;;;11.70;99.90;;;;;;5050329;28;19919;-79
2022/06/01 05:35:29;;;;;;;;;;;11.70;99.90;;;;;;5043203;28;19920;-79
2022/06/01 05:37:54;;;;;;;;;;;11.60;99.90;;;;;;5048849;28;19917;-79
2022/06/01 05:40:20;;;;;;;;;;;11.50;99.90;;;;;;5044014;28;19917;-79
2022/06/01 05:42:46;;;;;;;;;;;11.40;99.90;;;;;;5048957;28;19912;-79
2022/06/01 05:45:11;;;;;;;;;;;11.30;99.90;;;;;;5046106;28;19913;-79
2022/06/01 05:47:37;;;;;;;;;;;11.30;99.90;;;;;;5052065;28;19944;-79
2022/06/01 05:50:04;;;;;;;;;;;11.40;99.90;;;;;;5053104;28;19916;-79
2022/06/01 05:52:29;;;;;;;;;;;11.40;99.90;;;;;;5042999;28;19921;-79
2022/06/01 05:54:55;;;;;;;;;;;11.40;99.90;;;;;;5049538;28;19920;-80
2022/06/01 05:57:20;;;;;;;;;;;11.50;99.90;;;;;;5025930;28;19925;-80
2022/06/01 05:59:46;;;;;;;;;;;11.60;99.90;;;;;;5052489;28;19966;-80
2022/06/01 06:02:11;;;;;;;;;;;11.70;99.90;;;;;;5044146;28;19914;-80
2022/06/01 06:04:37;;;;;;;;;;;11.80;99.90;;;;;;5044844;28;19917;-80
2022/06/01 06:07:03;;;;;;;;;;;11.90;99.90;;;;;;5050286;28;21515;-79
2022/06/01 06:09:29;;;;;;;;;;;11.90;99.90;;;;;;5052891;28;19978;-81
2022/06/01 06:11:54;;;;;;;;;;;12.00;99.90;;;;;;5051916;28;20273;-80
2022/06/01 06:14:21;;;;;;;;;;;12.10;99.90;;;;;;5052291;28;19965;-79
2022/06/01 06:16:46;;;;;;;;;;;12.20;99.90;;;;;;5049398;28;19913;-79
2022/06/01 06:19:15;;;;;;;;;;;12.30;99.90;;;;;;5043380;28;20003;-80
2022/06/01 06:21:41;;;;;;;;;;;12.50;99.90;;;;;;5046925;28;20319;-80
2022/06/01 06:24:08;;;;;;;;;;;12.60;99.90;;;;;;5045026;28;19913;-79
2022/06/01 06:26:34;;;;;;;;;;;12.70;99.90;;;;;;5044804;28;20330;-79
2022/06/01 06:29:01;;;;;;;;;;;12.80;99.90;;;;;;5044614;28;19944;-79
2022/06/01 06:31:26;;;;;;;;;;;13.00;99.90;;;;;;5045702;28;19920;-79
2022/06/01 06:33:52;;;;;;;;;;;13.00;99.90;;;;;;5043103;28;20243;-79
2022/06/01 06:36:17;;;;;;;;;;;13.10;99.90;;;;;;5053767;28;19947;-80
2022/06/01 06:38:43;;;;;;;;;;;13.10;99.90;;;;;;5052835;28;19921;-79
2022/06/01 06:41:12;;;;;;;;;;;13.10;99.90;;;;;;5048982;28;19916;-79
2022/06/01 06:43:38;;;;;;;;;;;13.10;99.90;;;;;;5053209;28;19912;-78
2022/06/01 06:46:08;;;;;;;;;;;13.10;99.90;;;;;;5054261;28;20312;-79
2022/06/01 06:48:37;;;;;;;;;;;13.00;99.90;;;;;;5049635;28;22240;-77
2022/06/01 06:51:03;;;;;;;;;;;13.10;99.90;;;;;;5053129;28;20263;-77
2022/06/01 06:53:29;;;;;;;;;;;13.00;99.90;;;;;;5050592;28;20016;-79
2022/06/01 06:55:55;;;;;;;;;;;13.10;99.90;;;;;;5045018;28;19936;-79
2022/06/01 06:58:21;;;;;;;;;;;13.10;99.90;;;;;;5053043;28;19921;-79
2022/06/01 07:00:46;;;;;;;;;;;13.20;99.90;;;;;;5046746;28;19913;-79
2022/06/01 07:03:12;;;;;;;;;;;13.20;99.90;;;;;;5051809;28;19913;-78
2022/06/01 07:08:24;;;;;;;;;;;13.40;99.90;;;;;;5053327;28;20006;-79
2022/06/01 07:10:51;;;;;;;;;;;13.50;99.90;;;;;;5050277;28;19917;-79
2022/06/01 07:13:16;;;;;;;;;;;13.60;99.90;;;;;;5046775;28;19920;-78
2022/06/01 07:15:42;;;;;;;;;;;13.90;99.90;;;;;;5052724;28;20229;-78
2022/06/01 07:18:08;;;;;;;;;;;14.00;99.90;;;;;;5053064;28;19913;-79
2022/06/01 07:20:35;;;;;;;;;;;14.20;99.90;;;;;;5053442;28;19923;-78
2022/06/01 07:23:00;;;;;;;;;;;14.20;99.90;;;;;;5050505;28;19924;-80
2022/06/01 07:25:28;;;;;;;;;;;14.20;99.90;;;;;;5053695;28;19917;-79
2022/06/01 07:27:54;;;;;;;;;;;14.20;99.90;;;;;;5048039;28;19924;-79
2022/06/01 07:30:20;;;;;;;;;;;14.30;99.90;;;;;;5051757;28;19924;-79
2022/06/01 07:32:46;;;;;;;;;;;14.40;99.90;;;;;;5052081;28;19913;-81
2022/06/01 07:35:12;;;;;;;;;;;14.50;99.90;;;;;;5053929;28;20216;-79
2022/06/01 07:43:07;;;;;;;;;;;14.30;99.90;;;;;;5049038;28;20007;-79
2022/06/01 07:45:38;;;;;;;;;;;14.30;99.90;;;;;;5068835;28;19913;-78
2022/06/01 07:48:04;;;;;;;;;;;14.20;99.90;;;;;;5056682;28;19971;-79
2022/06/01 07:50:30;;;;;;;;;;;14.20;99.90;;;;;;5055037;28;19917;-79
2022/06/01 07:52:56;;;;;;;;;;;14.00;99.90;;;;;;5055338;28;19920;-78
2022/06/01 07:55:22;;;;;;;;;;;13.90;99.90;;;;;;5056396;28;19921;-78
2022/06/01 07:57:47;;;;;;;;;;;13.80;99.90;;;;;;5058226;28;19916;-79
2022/06/01 08:00:13;;;;;;;;;;;13.60;99.90;;;;;;5055288;28;19916;-79
2022/06/01 08:02:39;;;;;;;;;;;13.50;99.90;;;;;;5052087;28;19917;-78
2022/06/01 08:05:06;;;;;;;;;;;13.40;99.90;;;;;;5044568;28;19913;-79
2022/06/01 08:07:31;;;;;;;;;;;13.60;99.90;;;;;;5046288;28;19917;-80
2022/06/01 08:09:57;;;;;;;;;;;14.10;99.90;;;;;;5052186;28;19923;-77
2022/06/01 08:15:08;;;;;;;;;;;15.10;99.90;;;;;;5048551;28;19920;-80
2022/06/01 08:17:33;;;;;;;;;;;15.10;99.90;;;;;;5057840;28;19916;-79
2022/06/01 08:19:59;;;;;;;;;;;15.20;99.90;;;;;;5056982;28;19998;-80
2022/06/01 08:22:24;;;;;;;;;;;15.10;99.90;;;;;;5056636;28;20325;-76
2022/06/01 08:24:50;;;;;;;;;;;14.90;99.90;;;;;;5056159;28;19917;-77
2022/06/01 08:27:16;;;;;;;;;;;14.80;99.90;;;;;;5055801;28;19920;-79
2022/06/01 08:29:41;;;;;;;;;;;15.30;99.90;;;;;;5057225;28;20329;-78
2022/06/01 08:32:07;;;;;;;;;;;16.00;99.90;;;;;;5056270;28;19927;-79
2022/06/01 08:34:35;;;;;;;;;;;16.60;99.90;;;;;;5056788;28;19913;-78
2022/06/01 08:37:01;;;;;;;;;;;17.00;99.90;;;;;;5055038;28;19912;-79
2022/06/01 08:39:26;;;;;;;;;;;17.70;99.90;;;;;;5056577;28;19919;-78
2022/06/01 08:41:52;;;;;;;;;;;18.00;99.90;;;;;;5056406;28;20311;-79
2022/06/01 08:44:18;;;;;;;;;;;18.20;99.90;;;;;;5071782;28;19920;-76
2022/06/01 08:46:43;;;;;;;;;;;18.50;99.90;;;;;;5049960;28;21438;-80
2022/06/01 08:49:12;;;;;;;;;;;18.20;99.90;;;;;;5054848;28;20223;-79
2022/06/01 08:51:37;;;;;;;;;;;17.80;99.90;;;;;;5043571;28;19920;-78
2022/06/01 08:54:03;;;;;;;;;;;17.60;99.90;;;;;;5053024;28;19920;-78
2022/06/01 08:56:32;;;;;;;;;;;17.70;99.90;;;;;;5053182;28;20364;-79
2022/06/01 08:59:06;;;;;;;;;;;18.20;99.90;;;;;;5056019;28;19913;-79
2022/06/01 09:01:38;;;;;;;;;;;18.90;99.90;;;;;;5054428;28;19913;-77
2022/06/01 09:04:06;;;;;;;;;;;18.60;99.90;;;;;;5054608;28;19917;-80
2022/06/01 09:06:38;;;;;;;;;;;19.00;99.90;;;;;;5053240;28;20258;-79
2022/06/01 09:09:10;;;;;;;;;;;18.70;99.90;;;;;;5055241;28;19920;-81
2022/06/01 09:11:39;;;;;;;;;;;18.10;99.90;;;;;;5051166;28;19932;-80
2022/06/01 09:14:13;;;;;;;;;;;18.10;99.90;;;;;;5056470;28;19916;-79
2022/06/01 09:16:46;;;;;;;;;;;18.20;99.90;;;;;;5048197;28;20015;-79
2022/06/01 09:19:20;;;;;;;;;;;18.00;99.90;;;;;;5050875;28;20204;-80
2022/06/01 09:24:37;;;;;;;;;;;18.60;99.90;;;;;;5053020;28;20026;-78
2022/06/01 09:27:13;;;;;;;;;;;19.00;99.90;;;;;;5050707;28;19929;-79
2022/06/01 09:29:46;;;;;;;;;;;19.10;99.90;;;;;;5055857;28;19925;-78
2022/06/01 09:32:28;;;;;;;;;;;19.30;99.90;;;;;;5054101;28;20267;-79
2022/06/01 09:34:55;;;;;;;;;;;19.50;99.90;;;;;;5068917;28;19916;-79
2022/06/01 09:37:29;;;;;;;;;;;19.80;99.90;;;;;;5054914;28;20141;-78
2022/06/01 09:40:00;;;;;;;;;;;18.80;99.90;;;;;;5054165;28;19913;-79
2022/06/01 09:42:28;;;;;;;;;;;17.80;99.90;;;;;;5052413;28;19947;-76
2022/06/01 09:44:56;;;;;;;;;;;17.50;99.90;;;;;;5048177;28;20379;-78
2022/06/01 09:47:43;;;;;;;;;;;17.60;99.90;;;;;;5047441;28;19936;-78
2022/06/01 09:50:26;;;;;;;;;;;17.70;99.90;;;;;;5042238;28;20038;-78
2022/06/01 09:52:59;;;;;;;;;;;17.50;99.90;;;;;;5042759;28;19932;-78
2022/06/01 09:55:26;;;;;;;;;;;17.80;99.90;;;;;;5052338;28;19920;-78
2022/06/01 09:58:03;;;;;;;;;;;18.60;99.90;;;;;;5045183;28;19917;-78
2022/06/01 10:06:09;;;;;;;;;;;18.20;99.90;;;;;;5053582;28;19966;-83
2022/06/01 10:08:42;;;;;;;;;;;17.80;99.90;;;;;;5026946;28;20377;-84
2022/06/01 10:11:16;;;;;;;;;;;18.00;99.90;;;;;;5047895;28;19917;-81
2022/06/01 10:13:49;;;;;;;;;;;18.40;99.90;;;;;;5047275;28;19924;-80
2022/06/01 10:16:27;;;;;;;;;;;18.90;99.90;;;;;;5045289;28;19921;-77
2022/06/01 10:18:54;;;;;;;;;;;19.50;99.90;;;;;;5047286;28;19923;-77
2022/06/01 10:21:22;;;;;;;;;;;19.70;98.90;;;;;;5048460;28;19921;-80
2022/06/01 10:23:53;;;;;;;;;;;20.10;99.90;;;;;;5047823;28;19913;-78
2022/06/01 10:26:34;;;;;;;;;;;20.30;99.80;;;;;;5047682;28;20291;-80
2022/06/01 10:29:03;;;;;;;;;;;20.50;98.70;;;;;;5048108;28;20272;-79
2022/06/01 10:31:31;;;;;;;;;;;20.30;99.20;;;;;;5048288;28;20262;-84
2022/06/01 10:34:02;;;;;;;;;;;19.40;98.80;;;;;;5048952;28;19913;-80
2022/06/01 10:36:34;;;;;;;;;;;18.60;99.90;;;;;;5046496;28;19928;-77
2022/06/01 10:39:07;;;;;;;;;;;18.20;99.60;;;;;;5046671;28;19916;-80
2022/06/01 10:41:37;;;;;;;;;;;18.30;99.90;;;;;;5046002;28;19917;-79
2022/06/01 10:44:02;;;;;;;;;;;18.60;99.90;;;;;;5045843;28;19971;-78
2022/06/01 10:46:30;;;;;;;;;;;19.00;99.90;;;;;;5047605;28;19917;-80
2022/06/01 10:49:10;;;;;;;;;;;19.00;99.40;;;;;;5046801;28;19971;-83
2022/06/01 10:51:36;;;;;;;;;;;18.90;99.90;;;;;;5046238;28;19913;-81
2022/06/01 10:54:21;;;;;;;;;;;19.30;99.90;;;;;;5045598;28;20277;-80
2022/06/01 10:56:47;;;;;;;;;;;19.80;99.90;;;;;;5045983;28;19928;-78
2022/06/01 10:59:14;;;;;;;;;;;20.00;99.60;;;;;;5048471;28;19913;-78
2022/06/01 11:01:42;;;;;;;;;;;19.30;98.80;;;;;;5049152;28;19920;-82
2022/06/01 11:04:08;;;;;;;;;;;18.60;99.90;;;;;;5045538;28;20366;-80
2022/06/01 11:06:54;;;;;;;;;;;18.10;99.90;;;;;;5044858;28;19917;-82
2022/06/01 11:09:25;;;;;;;;;;;17.60;99.90;;;;;;5036744;28;20300;-79
2022/06/01 11:11:58;;;;;;;;;;;17.60;99.90;;;;;;5041728;28;19917;-78
2022/06/01 11:14:31;;;;;;;;;;;17.70;99.90;;;;;;5046070;28;19982;-78
2022/06/01 11:16:57;;;;;;;;;;;17.60;99.90;;;;;;5045198;28;19943;-78
2022/06/01 11:19:41;;;;;;;;;;;17.20;99.90;;;;;;5048004;28;19959;-78
2022/06/01 11:22:25;;;;;;;;;;;16.80;99.90;;;;;;5052081;28;19924;-79
2022/06/01 11:25:10;;;;;;;;;;;16.60;99.90;;;;;;5043860;28;20326;-78
2022/06/01 11:27:45;;;;;;;;;;;16.50;99.90;;;;;;5043149;28;20007;-78
2022/06/01 11:30:16;;;;;;;;;;;16.30;99.90;;;;;;5043820;28;19925;-80
2022/06/01 11:33:02;;;;;;;;;;;16.30;99.90;;;;;;5044183;28;19963;-78
2022/06/01 11:35:37;;;;;;;;;;;16.10;99.90;;;;;;5044199;28;19917;-80
2022/06/01 11:38:21;;;;;;;;;;;15.70;99.90;;;;;;5044013;28;19932;-79
2022/06/01 11:40:49;;;;;;;;;;;15.70;99.90;;;;;;5044855;28;19963;-77
2022/06/01 11:43:26;;;;;;;;;;;15.70;99.90;;;;;;5042537;28;19912;-79
2022/06/01 11:46:03;;;;;;;;;;;15.50;99.90;;;;;;5045350;28;19921;-80
2022/06/01 11:48:33;;;;;;;;;;;15.40;99.90;;;;;;5044929;28;20008;-79
2022/06/01 11:51:17;;;;;;;;;;;15.20;99.90;;;;;;5047035;28;19987;-80
2022/06/01 11:53:56;;;;;;;;;;;15.50;99.90;;;;;;5044754;28;19973;-80
2022/06/01 11:56:36;;;;;;;;;;;15.60;99.90;;;;;;5042584;28;19971;-78
2022/06/01 11:59:05;;;;;;;;;;;15.70;99.90;;;;;;5044602;28;19920;-79
2022/06/01 12:01:33;;;;;;;;;;;15.60;99.90;;;;;;5047770;28;19917;-80
2022/06/01 12:04:18;;;;;;;;;;;15.50;99.90;;;;;;5046124;28;20295;-77
2022/06/01 12:06:53;;;;;;;;;;;15.60;99.90;;;;;;5046077;28;19943;-78
2022/06/01 12:09:42;;;;;;;;;;;15.50;99.90;;;;;;5045914;28;19920;-82
2022/06/01 12:12:22;;;;;;;;;;;15.60;99.90;;;;;;5029754;28;19919;-78
2022/06/01 12:14:56;;;;;;;;;;;15.70;99.90;;;;;;5047043;28;20269;-82
2022/06/01 12:17:22;;;;;;;;;;;16.00;99.90;;;;;;5045420;28;19971;-79
2022/06/01 12:20:11;;;;;;;;;;;16.50;99.90;;;;;;5044837;28;19971;-78
2022/06/01 12:29:10;;;;;;;;;;;16.20;99.90;;;;;;5044958;28;19986;-79
2022/06/01 12:31:37;;;;;;;;;;;16.30;99.90;;;;;;5042405;28;19924;-83
2022/06/01 12:34:11;;;;;;;;;;;16.50;99.90;;;;;;5049306;28;19951;-80
2022/06/01 12:36:37;;;;;;;;;;;16.80;99.90;;;;;;5048050;28;19920;-78
2022/06/01 12:39:06;;;;;;;;;;;16.80;99.90;;;;;;5045480;28;19912;-82
2022/06/01 12:41:35;;;;;;;;;;;16.90;99.90;;;;;;5051864;28;19917;-79
2022/06/01 12:44:03;;;;;;;;;;;17.10;99.90;;;;;;5048854;28;19912;-78
2022/06/01 12:46:31;;;;;;;;;;;17.20;99.90;;;;;;5046124;28;20126;-76
2022/06/01 12:49:15;;;;;;;;;;;16.80;99.90;;;;;;5048955;28;19914;-79
2022/06/01 12:51:41;;;;;;;;;;;16.60;99.90;;;;;;5045891;28;20319;-80
2022/06/01 12:54:07;;;;;;;;;;;16.90;99.90;;;;;;5047779;28;20304;-79
2022/06/01 12:56:33;;;;;;;;;;;16.90;99.90;;;;;;5049826;28;19920;-80
2022/06/01 12:58:58;;;;;;;;;;;16.90;99.90;;;;;;5047697;28;19920;-79
2022/06/01 13:01:27;;;;;;;;;;;16.90;99.90;;;;;;5048751;28;19920;-76
2022/06/01 13:03:56;;;;;;;;;;;17.00;99.90;;;;;;5043229;28;19917;-78
2022/06/01 13:06:22;;;;;;;;;;;16.90;99.90;;;;;;5040774;28;19963;-77
2022/06/01 13:09:08;;;;;;;;;;;17.30;99.90;;;;;;5038652;28;19916;-79
2022/06/01 13:11:35;;;;;;;;;;;17.50;99.90;;;;;;5036525;28;20285;-78
2022/06/01 13:14:01;;;;;;;;;;;17.50;99.90;;;;;;5049374;28;19912;-79
2022/06/01 13:16:35;;;;;;;;;;;17.40;99.90;;;;;;5049093;28;20011;-80
2022/06/01 13:19:13;;;;;;;;;;;17.40;99.90;;;;;;5062944;28;20204;-77
2022/06/01 13:21:39;;;;;;;;;;;17.20;99.90;;;;;;5039439;28;19959;-78
2022/06/01 13:24:09;;;;;;;;;;;16.90;99.90;;;;;;5049543;28;20287;-78
2022/06/01 13:26:39;;;;;;;;;;;16.80;99.90;;;;;;5048645;28;19913;-77
2022/06/01 13:29:13;;;;;;;;;;;16.70;99.90;;;;;;5040229;28;19983;-81
2022/06/01 13:31:40;;;;;;;;;;;16.30;99.90;;;;;;5047940;28;20008;-78
2022/06/01 13:34:07;;;;;;;;;;;16.20;99.90;;;;;;5045457;28;19924;-80
2022/06/01 13:36:36;;;;;;;;;;;15.90;99.90;;;;;;5047305;28;20022;-82
2022/06/01 13:39:04;;;;;;;;;;;15.80;99.90;;;;;;5061408;28;20116;-77
2022/06/01 13:41:34;;;;;;;;;;;15.60;99.90;;;;;;5047179;28;19956;-80
2022/06/01 13:44:05;;;;;;;;;;;15.60;99.90;;;;;;5061637;28;19913;-81
2022/06/01 13:46:33;;;;;;;;;;;15.80;99.90;;;;;;5046542;28;20004;-77
2022/06/01 13:49:00;;;;;;;;;;;16.00;99.90;;;;;;5046787;28;19917;-77
2022/06/01 13:51:36;;;;;;;;;;;16.20;99.90;;;;;;5046641;28;19921;-83
2022/06/01 13:54:16;;;;;;;;;;;16.20;99.90;;;;;;5047547;28;19947;-79
2022/06/01 13:56:43;;;;;;;;;;;16.50;99.90;;;;;;5048538;28;19931;-78
2022/06/01 13:59:31;;;;;;;;;;;16.50;99.90;;;;;;5045805;28;20319;-78
2022/06/01 14:02:03;;;;;;;;;;;16.20;99.90;;;;;;5030794;28;19917;-79
2022/06/01 14:04:48;;;;;;;;;;;15.90;99.90;;;;;;5048539;28;19919;-79
2022/06/01 14:07:16;;;;;;;;;;;15.80;99.90;;;;;;5046764;28;19952;-78
2022/06/01 14:09:46;;;;;;;;;;;15.70;99.90;;;;;;5047423;28;20390;-80
2022/06/01 14:12:14;;;;;;;;;;;15.70;99.90;;;;;;5048770;28;20007;-77
2022/06/01 14:14:40;;;;;;;;;;;15.60;99.90;;;;;;5044418;28;19956;-77
2022/06/01 14:17:07;;;;;;;;;;;15.40;99.90;;;;;;5046670;28;19923;-78
2022/06/01 14:19:33;;;;;;;;;;;15.20;99.90;;;;;;5046734;28;19913;-81
2022/06/01 14:21:59;;;;;;;;;;;15.20;99.90;;;;;;5045993;28;19917;-79
2022/06/01 14:24:24;;;;;;;;;;;15.10;99.90;;;;;;5047386;28;20039;-79
2022/06/01 14:29:35;;;;;;;;;;;14.80;99.90;;;;;;5039439;28;20322;-80
2022/06/01 14:32:00;;;;;;;;;;;14.60;99.90;;;;;;5034427;28;20209;-78
2022/06/01 14:34:27;;;;;;;;;;;14.00;99.90;;;;;;5048113;28;19948;-77
2022/06/01 14:36:53;;;;;;;;;;;13.80;99.90;;;;;;5045914;28;19919;-79
2022/06/01 14:39:19;;;;;;;;;;;13.60;99.90;;;;;;5046639;28;20251;-79
2022/06/01 14:41:47;;;;;;;;;;;13.70;99.90;;;;;;5032721;28;19926;-79
2022/06/01 14:44:17;;;;;;;;;;;13.70;99.90;;;;;;5046935;28;19920;-79
2022/06/01 14:46:43;;;;;;;;;;;13.70;99.90;;;;;;5035606;28;20219;-77
2022/06/01 14:49:10;;;;;;;;;;;13.60;99.90;;;;;;5037792;28;20018;-77
2022/06/01 14:51:37;;;;;;;;;;;13.60;99.90;;;;;;5045427;28;19913;-78
2022/06/01 14:54:04;;;;;;;;;;;13.70;99.90;;;;;;5048950;28;19912;-79
2022/06/01 14:56:30;;;;;;;;;;;13.80;99.90;;;;;;5047790;28;20015;-79
2022/06/01 14:59:00;;;;;;;;;;;13.90;99.90;;;;;;5045071;28;20003;-78
2022/06/01 15:01:31;;;;;;;;;;;13.90;99.90;;;;;;5049376;28;19966;-80